Skip Navigation Links
NOAA logo - Click to go to the NOAA homepage
NOAA's National Weather Service
Alaska Aviation Weather Unit
  NWS logo - Click to go to the NWS homepage
Left Navbar Graphic     03 AKDT = 11 GMT

   
NOAA is celebrating 200 years of science, service, and stewardship. Visit the NOAA 200th celebration Web site to learn more.
USA.gov is the U.S. Government's official Web portal to all Federal, state and local government Web resources and services.
Facebook
NWS on Facebook

Important Change Regarding the AAWU Web Presence

 

Over the last several months, the AAWU has been working to navigate its webpages to a nationally supported server. Security, as well as other needs, have necessitated the change.  We have been given an extension for the site changeover while we diligently work at addressing feedback received. As of July 14, 2017, aawu.arh.noaa.gov will be discontinued. The new AAWU web address is weather.gov/aawu. It is now live and will run in-parallel with the old site until it is discontinued on July 14, 2017. Please continue to send any feedback or questions regarding the new webpages to nws.ar.aawu.webauthors@noaa.gov.  Thank you for your patience during this time of transition.
AAWU Home :: Display TAF Add Bookmark
TAF PABT 231139Z 2312/2412  20005KT 4SM -RA BR VCSH SCT014 BKN035 OVC050
     FM231700 20004KT 6SM -RA BR SCT035 BKN050
     FM240200 VRB03KT P6SM FEW060 SCT100=

6508
FTAK31 PAFA 231139
TAFAMC
TAF
PABT 230553Z 00000KT 2 1/2SM -RA BR FEW004 OVC008 09/08 A2965 RMK
     AO2 SLP048 P0002 60007 T00940083 10111 20094 56008=

PABT 230600Z 00000KT 2 1/2SM -RA BR BKN004 OVC008 09/08 A2965=

PABT 230600Z 00000KT 2 1/2SM -RA BR BKN004 OVC008 09/08 A2965 RMK
     AO2 P0001 T00940083=

PABT 230607Z 00000KT 2 1/2SM -RA BR BKN003 OVC008 09/08 A2965=

SPECI PABT 230607Z 00000KT 2 1/2SM -RA BR BKN003 OVC008 09/08 A2965
 RMK AO2 VIS 2V5 P0002 T00940083=

PABT 230614Z 12004KT 4SM -RA BR BKN003 OVC008 09/08 A2965=

SPECI PABT 230614Z 12004KT 4SM -RA BR BKN003 OVC008 09/08 A2965 RMK AO2
     P0002 T00940083=

PABT 230643Z 16003KT 1 1/2SM -RA BR BKN003 OVC008 09/08 A2965=

SPECI PABT 230643Z 16003KT 1 1/2SM -RA BR BKN003 OVC008 09/08 A2965
 RMK AO2 P0005 T00940083=

METAR PABT 230653Z 00000KT 1 1/2SM -RA BR BKN003 OVC008 09/08 A2965 RMK
     AO2 SLP047 P0009 T00940083=

PABT 230700Z 00000KT 1 1/2SM -RA BR BKN005 OVC013 09/08 A2965=

PABT 230700Z 00000KT 1 1/2SM -RA BR BKN005 OVC013 09/08 A2965 RMK
     AO2 P0004 T00940083=

PABT 230723Z 36003KT 2SM -RA BR BKN005 OVC013 09/08 A2965=

SPECI PABT 230723Z 36003KT 2SM -RA BR BKN005 OVC013 09/08 A2965 RMK
 AO2 P0014 T00890078=

PABT 230745Z 00000KT 3SM -RA BR BKN005 OVC013 08/07 A2965=

SPECI PABT 230745Z 00000KT 3SM -RA BR BKN005 OVC013 08/07 A2965 RMK AO2
     P0018 T00830072=

METAR PABT 230753Z 00000KT 4SM -RA BR SCT005 BKN013 OVC034 08/07 A2965
     RMK AO2 SLP048 P0019 T00830072=

PABT 230823Z 00000KT 10SM SCT020 BKN045 OVC100 08/07 A2965=

SPECI PABT 230823Z 00000KT 10SM SCT020 BKN045 OVC100 08/07 A2965 RMK
 AO2 RAE21 P0004 T00830072=

PABT 230842Z 00000KT 10SM BKN018 BKN030 OVC065 08/07 A2965=

SPECI PABT 230842Z 00000KT 10SM BKN018 BKN030 OVC065 08/07 A2965 RMK AO2
     RAE21 P0004 T00830072=

PABT 230853Z 00000KT 10SM BKN018 OVC029 08/07 A2965 RMK AO2 RAE21
     SLP050 P0004 60032 T00830072 401390006 53002=

METAR PABT 230953Z 00000KT 7SM BKN012 BKN017 OVC024 08/07 A2965 RMK
 AO2 SLP050 T00830072=

PABT 231010Z 00000KT 2SM -RA BR BKN010 OVC015 08/07 A2965 RMK AO2
     RAB06 P0000 T00780067=

PABT 231024Z 13003KT 4SM -RA BR FEW007 BKN013 OVC036 08/07 A2965=

PABT 231024Z 13003KT 4SM -RA BR FEW007 BKN013 OVC036 08/07 A2965
     RMK AO2 RAB06 P0000 T00780067=

PABT 231036Z 17004KT 4SM -RA BR BKN005 BKN008 OVC036 08/07 A2966=

PABT 231036Z 17004KT 4SM -RA BR BKN005 BKN008 OVC036 08/07 A2966
     RMK AO2 RAB06 CIG 002V007 P0000 T00780072=

METAR PABT 231053Z 20005KT 6SM -RA BR SCT005 OVC013 08/06 A2966 RMK AO2
     RAB06 SLP053 P0000 T00780056=

SPECI PABT 231115Z 20005KT 6SM -RA BR SCT014 BKN038 OVC049 07/06
 A2967 RMK AO2 P0000 T00720056=


NOAA's National Weather Service
Alaska Aviation Weather Unit
6930 Sand Lake Road
Anchorage, AK 99502-1845
Disclaimer
Credits
Glossary
Privacy Policy
About Us
Career Opportunities
Contact AAWU Internet Services Site last modified: April, 17th 2012